createdAt,value
2022-12-16T00:01:27.616Z,66.13
2022-12-16T00:03:59.937Z,68.65
2022-12-16T00:06:31.910Z,63.78
2022-12-16T00:09:01.821Z,64.47
2022-12-16T00:11:32.003Z,62.88
2022-12-16T00:13:59.757Z,65.68
2022-12-16T00:16:28.622Z,64.15
2022-12-16T00:18:56.824Z,64.57
2022-12-16T00:21:29.636Z,62.50
2022-12-16T00:23:58.467Z,65.00
2022-12-16T00:26:29.801Z,63.58
2022-12-16T00:28:58.104Z,62.50
2022-12-16T00:31:27.618Z,59.85
2022-12-16T00:33:57.415Z,60.55
2022-12-16T00:36:25.433Z,62.72
2022-12-16T00:38:53.875Z,58.33
2022-12-16T00:41:22.065Z,60.90
2022-12-16T00:43:51.114Z,63.20
2022-12-16T00:46:20.020Z,59.50
2022-12-16T00:48:47.882Z,61.83
2022-12-16T00:51:15.896Z,62.90
2022-12-16T00:53:43.803Z,64.45
2022-12-16T00:56:14.495Z,60.78
2022-12-16T00:58:42.753Z,63.55
2022-12-16T01:01:12.584Z,61.72
2022-12-16T01:03:41.027Z,65.55
2022-12-16T01:06:11.139Z,63.63
2022-12-16T01:08:39.119Z,65.60
2022-12-16T01:11:07.667Z,62.80
2022-12-16T01:13:36.015Z,62.70
2022-12-16T01:16:04.585Z,64.95
2022-12-16T01:18:33.723Z,64.45
2022-12-16T01:21:04.525Z,64.85
2022-12-16T01:23:33.395Z,62.65
2022-12-16T01:26:02.950Z,66.53
2022-12-16T01:28:31.316Z,62.85
2022-12-16T01:31:01.823Z,62.83
2022-12-16T01:33:31.284Z,64.45
2022-12-16T01:36:02.939Z,65.22
2022-12-16T01:38:31.602Z,67.50
2022-12-16T01:40:59.964Z,65.53
2022-12-16T01:43:31.206Z,65.00
2022-12-16T01:46:04.134Z,65.47
2022-12-16T01:51:08.904Z,62.33
2022-12-16T01:53:40.604Z,65.35
2022-12-16T01:56:09.201Z,66.25
2022-12-16T01:58:41.655Z,67.80
2022-12-16T02:01:10.371Z,68.85
2022-12-16T02:03:39.761Z,68.22
2022-12-16T02:06:09.403Z,67.82
2022-12-16T02:08:37.618Z,67.93
2022-12-16T02:11:25.552Z,71.13
2022-12-16T02:14:12.307Z,69.65
2022-12-16T02:16:48.265Z,70.50
2022-12-16T02:19:41.009Z,73.18
2022-12-16T02:22:24.819Z,65.30
2022-12-16T02:25:25.811Z,70.63
2022-12-16T02:28:02.131Z,72.15
2022-12-16T02:30:56.522Z,68.55
2022-12-16T02:33:41.692Z,69.20
2022-12-16T02:36:17.871Z,69.43
2022-12-16T02:38:57.123Z,68.97
2022-12-16T02:41:32.236Z,71.95
2022-12-16T02:44:04.130Z,69.47
2022-12-16T02:46:39.373Z,54.00
2022-12-16T02:49:08.713Z,69.28
2022-12-16T02:51:39.466Z,65.30
2022-12-16T02:54:09.086Z,70.03
2022-12-16T02:56:51.559Z,66.82
2022-12-16T02:59:25.443Z,67.10
2022-12-16T03:01:59.952Z,67.05
2022-12-16T03:04:37.383Z,62.60
2022-12-16T03:07:08.067Z,60.65
2022-12-16T03:09:40.082Z,63.45
2022-12-16T03:12:12.713Z,62.38
2022-12-16T03:14:44.371Z,61.17
2022-12-16T03:17:15.147Z,60.83
2022-12-16T03:19:48.317Z,62.13
2022-12-16T03:22:21.263Z,61.30
2022-12-16T03:24:49.711Z,61.92
2022-12-16T03:27:21.671Z,59.05
2022-12-16T03:29:59.228Z,60.15
2022-12-16T03:32:35.559Z,61.33
2022-12-16T03:35:12.041Z,61.85
2022-12-16T03:37:42.360Z,59.22
2022-12-16T03:40:12.819Z,59.00
2022-12-16T03:42:42.135Z,59.63
2022-12-16T03:45:16.809Z,58.00
2022-12-16T03:47:50.336Z,59.42
2022-12-16T03:50:20.826Z,59.80
2022-12-16T03:52:48.652Z,57.03
2022-12-16T03:55:16.749Z,67.65
2022-12-16T03:57:44.721Z,63.53
2022-12-16T04:00:14.227Z,59.25
2022-12-16T04:02:42.704Z,59.05
2022-12-16T04:05:12.554Z,57.38
2022-12-16T04:07:40.389Z,54.15
2022-12-16T04:10:09.530Z,52.38
2022-12-16T04:12:54.908Z,55.40
2022-12-16T04:15:40.936Z,54.55
2022-12-16T04:18:33.222Z,59.30
2022-12-16T04:21:21.249Z,54.25
2022-12-16T04:24:10.397Z,59.83
2022-12-16T04:26:52.328Z,58.50
2022-12-16T04:29:20.444Z,56.00
2022-12-16T04:31:48.735Z,55.63
2022-12-16T04:34:29.322Z,59.47
2022-12-16T04:37:18.102Z,53.15
2022-12-16T04:40:03.798Z,53.53
2022-12-16T04:42:49.956Z,56.20
2022-12-16T04:45:35.793Z,55.10
2022-12-16T04:48:22.160Z,56.08
2022-12-16T04:51:07.981Z,53.53
2022-12-16T04:53:54.979Z,52.47
2022-12-16T04:56:51.773Z,51.83
2022-12-16T04:59:37.350Z,55.20
2022-12-16T05:02:23.051Z,57.88
2022-12-16T05:05:08.910Z,56.17
2022-12-16T05:07:54.039Z,57.20
2022-12-16T05:10:41.175Z,59.75
2022-12-16T05:13:26.432Z,53.67
2022-12-16T05:16:12.441Z,52.95
2022-12-16T05:18:57.715Z,48.80
2022-12-16T05:21:43.579Z,43.97
2022-12-16T05:24:28.782Z,46.70
2022-12-16T05:27:16.250Z,44.63
2022-12-16T05:30:01.647Z,43.20
2022-12-16T05:32:47.517Z,44.30
2022-12-16T05:35:41.575Z,46.42
2022-12-16T05:38:27.464Z,42.70
2022-12-16T05:41:12.924Z,42.60
2022-12-16T05:44:00.181Z,39.63
2022-12-16T05:46:45.573Z,38.95
2022-12-16T05:49:31.613Z,39.17
2022-12-16T05:52:16.919Z,36.65
2022-12-16T05:55:02.931Z,34.85
2022-12-16T05:57:48.277Z,35.50
2022-12-16T06:00:35.853Z,33.50
2022-12-16T06:03:21.382Z,35.72
2022-12-16T06:06:07.219Z,35.58
2022-12-16T06:08:52.515Z,32.80
2022-12-16T06:11:37.660Z,35.67
2022-12-16T06:14:23.239Z,40.58
2022-12-16T06:17:10.171Z,39.58
2022-12-16T06:20:03.837Z,42.25
2022-12-16T06:22:49.896Z,73.60
2022-12-16T06:25:35.087Z,60.50
2022-12-16T06:28:20.975Z,71.35
2022-12-16T06:31:06.796Z,69.82
2022-12-16T06:33:55.138Z,41.80
2022-12-16T06:36:40.909Z,60.78
2022-12-16T06:39:26.561Z,54.33
2022-12-16T06:42:11.817Z,35.30
2022-12-16T06:44:57.722Z,31.85
2022-12-16T06:47:42.904Z,33.63
2022-12-16T06:50:30.480Z,31.75
2022-12-16T06:53:15.813Z,30.85
2022-12-16T06:56:01.652Z,32.50
2022-12-16T06:58:47.050Z,32.17
2022-12-16T07:01:32.825Z,31.35
2022-12-16T07:04:18.550Z,33.05
2022-12-16T07:07:05.971Z,32.17
2022-12-16T07:09:51.230Z,33.35
2022-12-16T07:12:37.343Z,33.75
2022-12-16T07:15:23.624Z,30.45
2022-12-16T07:18:09.568Z,35.88
2022-12-16T07:20:55.109Z,28.25
2022-12-16T07:23:42.389Z,29.65
2022-12-16T07:26:27.701Z,29.88
2022-12-16T07:29:13.943Z,29.88
2022-12-16T07:31:59.244Z,29.27
2022-12-16T07:34:50.591Z,28.63
2022-12-16T07:37:36.289Z,25.88
2022-12-16T07:40:24.417Z,31.10
2022-12-16T07:43:09.764Z,38.85
2022-12-16T07:45:55.585Z,36.10
2022-12-16T07:48:40.843Z,35.80
2022-12-16T07:51:26.567Z,45.47
2022-12-16T07:54:11.769Z,46.35
2022-12-16T07:56:58.903Z,51.63
2022-12-16T07:59:44.259Z,49.35
2022-12-16T08:02:30.258Z,38.55
2022-12-16T08:05:16.030Z,40.03
2022-12-16T08:08:01.880Z,35.35
2022-12-16T08:10:47.100Z,32.25
2022-12-16T08:13:34.594Z,29.08
2022-12-16T08:16:20.407Z,28.35
2022-12-16T08:19:10.809Z,27.38
2022-12-16T08:21:56.855Z,25.17
2022-12-16T08:24:43.819Z,24.67
2022-12-16T08:27:32.062Z,22.17
2022-12-16T08:30:19.186Z,22.58
2022-12-16T08:33:15.028Z,23.15
2022-12-16T08:36:04.329Z,21.75
2022-12-16T08:38:49.556Z,24.30
2022-12-16T08:41:35.228Z,23.58
2022-12-16T08:44:20.722Z,26.25
2022-12-16T08:47:08.106Z,23.95
2022-12-16T08:49:57.711Z,23.45
2022-12-16T08:52:47.543Z,25.80
2022-12-16T08:55:32.957Z,30.10
2022-12-16T08:58:19.071Z,35.60
2022-12-16T09:01:07.423Z,28.65
2022-12-16T09:03:57.801Z,60.13
2022-12-16T09:06:43.329Z,43.63
2022-12-16T09:09:29.153Z,36.15
2022-12-16T09:12:14.308Z,32.72
2022-12-16T09:15:00.397Z,25.70
2022-12-16T09:17:45.524Z,26.48
2022-12-16T09:20:32.770Z,31.75
2022-12-16T09:23:20.627Z,24.75
2022-12-16T09:26:06.655Z,22.95
2022-12-16T09:28:51.905Z,23.23
2022-12-16T09:31:38.798Z,23.67
2022-12-16T09:34:24.146Z,22.40
2022-12-16T09:37:11.232Z,23.95
2022-12-16T09:39:56.505Z,19.80
2022-12-16T09:42:48.848Z,18.45
2022-12-16T09:45:45.439Z,18.65
2022-12-16T09:48:38.556Z,17.98
2022-12-16T09:54:14.553Z,16.95
2022-12-16T09:57:01.843Z,17.40
2022-12-16T09:59:52.283Z,19.38
2022-12-16T10:02:39.816Z,21.13
2022-12-16T10:05:30.258Z,22.80
2022-12-16T10:08:24.791Z,27.15
2022-12-16T10:11:17.415Z,29.00
2022-12-16T10:14:09.864Z,28.65
2022-12-16T10:17:06.613Z,28.63
2022-12-16T10:20:08.973Z,28.08
2022-12-16T10:23:02.924Z,27.05
2022-12-16T10:25:54.796Z,25.25
2022-12-16T10:28:58.961Z,26.85
2022-12-16T10:31:44.304Z,26.27
2022-12-16T10:34:34.055Z,25.63
2022-12-16T10:37:21.306Z,23.27
2022-12-16T10:40:14.626Z,24.55
2022-12-16T10:43:05.247Z,25.40
2022-12-16T10:45:56.775Z,26.23
2022-12-16T10:48:55.114Z,25.83
2022-12-16T10:51:45.784Z,25.83
2022-12-16T10:54:50.372Z,27.73
2022-12-16T10:57:49.001Z,27.45
2022-12-16T11:00:36.811Z,27.90
2022-12-16T11:03:41.293Z,28.88
2022-12-16T11:06:27.468Z,29.55
2022-12-16T11:09:13.137Z,29.48
2022-12-16T11:11:58.431Z,30.40
2022-12-16T11:15:05.722Z,29.42
2022-12-16T11:17:51.775Z,30.40
2022-12-16T11:20:41.260Z,32.35
2022-12-16T11:23:31.905Z,28.50
2022-12-16T11:26:34.516Z,26.80
2022-12-16T11:29:24.885Z,29.48
2022-12-16T11:32:16.188Z,29.48
2022-12-16T11:35:07.718Z,28.08
2022-12-16T11:37:56.752Z,28.25
2022-12-16T11:40:43.051Z,28.45
2022-12-16T11:43:32.435Z,31.85
2022-12-16T11:46:21.793Z,27.83
2022-12-16T11:49:11.061Z,30.98
2022-12-16T11:52:28.366Z,32.95
2022-12-16T11:55:35.690Z,36.97
2022-12-16T11:58:37.255Z,35.58
2022-12-16T12:01:31.908Z,35.75
2022-12-16T12:04:17.676Z,33.65
2022-12-16T12:07:18.819Z,32.58
2022-12-16T12:10:11.715Z,32.63
2022-12-16T12:13:04.519Z,36.35
2022-12-16T12:15:57.044Z,33.60
2022-12-16T12:21:44.090Z,34.65
2022-12-16T12:24:42.699Z,32.78
2022-12-16T12:27:39.547Z,30.17
2022-12-16T12:30:31.514Z,34.72
2022-12-16T12:33:35.673Z,30.58
2022-12-16T12:36:36.233Z,35.80
2022-12-16T12:39:33.660Z,34.20
2022-12-16T12:42:30.860Z,33.45
2022-12-16T12:45:34.611Z,32.92
2022-12-16T12:48:31.764Z,34.17
2022-12-16T12:51:24.505Z,34.65
2022-12-16T12:54:18.679Z,32.08
2022-12-16T12:57:07.786Z,35.22
2022-12-16T13:00:06.063Z,38.00
2022-12-16T13:03:04.527Z,36.95
2022-12-16T13:05:53.399Z,43.88
2022-12-16T13:09:15.804Z,40.78
2022-12-16T13:12:35.457Z,36.92
2022-12-16T13:15:25.917Z,36.42
2022-12-16T13:18:37.569Z,39.30
2022-12-16T13:21:43.629Z,43.03
2022-12-16T13:24:43.604Z,40.90
2022-12-16T13:27:31.412Z,42.38
2022-12-16T13:30:21.505Z,42.30
2022-12-16T13:33:13.348Z,43.10
2022-12-16T13:36:13.243Z,43.30
2022-12-16T13:39:05.193Z,45.03
2022-12-16T13:42:17.992Z,45.33
2022-12-16T13:45:34.516Z,47.58
2022-12-16T13:48:43.497Z,46.17
2022-12-16T13:52:11.120Z,47.50
2022-12-16T13:55:03.394Z,49.00
2022-12-16T13:57:50.834Z,50.40
2022-12-16T14:00:39.789Z,52.58
2022-12-16T14:03:32.829Z,54.25
2022-12-16T14:06:20.802Z,56.05
2022-12-16T14:09:07.633Z,56.00
2022-12-16T14:12:06.503Z,57.05
2022-12-16T14:14:59.459Z,51.80
2022-12-16T14:17:52.671Z,51.85
2022-12-16T14:20:45.046Z,51.72
2022-12-16T14:26:44.195Z,55.63
2022-12-16T14:29:40.074Z,56.55
2022-12-16T14:32:46.362Z,60.70
2022-12-16T14:35:33.796Z,56.55
2022-12-16T14:38:39.316Z,58.30
2022-12-16T14:41:29.336Z,51.08
2022-12-16T14:44:14.798Z,51.05
2022-12-16T14:47:02.023Z,54.70
2022-12-16T14:49:48.807Z,53.72
2022-12-16T14:52:36.998Z,53.25
2022-12-16T14:55:35.212Z,51.08
2022-12-16T14:58:23.383Z,57.40
2022-12-16T15:01:15.560Z,65.75
2022-12-16T15:04:05.367Z,61.88
2022-12-16T15:06:53.411Z,81.13
2022-12-16T15:09:45.193Z,59.10
2022-12-16T15:12:33.339Z,58.80
2022-12-16T15:15:22.541Z,60.17
2022-12-16T15:18:09.770Z,64.30
2022-12-16T15:21:07.352Z,63.70
2022-12-16T15:23:53.665Z,65.55
2022-12-16T15:26:41.161Z,63.72
2022-12-16T15:29:50.378Z,64.40
2022-12-16T15:32:50.977Z,65.82
2022-12-16T15:35:45.021Z,67.32
2022-12-16T15:38:40.337Z,73.47
2022-12-16T15:41:36.400Z,78.10
2022-12-16T15:44:21.973Z,77.82
2022-12-16T15:47:08.044Z,75.72
2022-12-16T15:50:03.473Z,79.93
2022-12-16T15:52:54.313Z,84.85
2022-12-16T15:55:45.143Z,81.43
2022-12-16T15:58:32.451Z,77.80
2022-12-16T16:01:19.264Z,82.55
2022-12-16T16:04:09.482Z,87.22
2022-12-16T16:06:55.756Z,85.57
2022-12-16T16:09:43.665Z,83.13
2022-12-16T16:12:32.324Z,85.47
2022-12-16T16:15:17.744Z,82.43
2022-12-16T16:18:17.336Z,82.78
2022-12-16T16:21:03.207Z,86.32
2022-12-16T16:23:49.742Z,75.07
2022-12-16T16:26:38.572Z,68.82
2022-12-16T16:29:27.753Z,83.85
2022-12-16T16:32:13.453Z,81.28
2022-12-16T16:34:59.271Z,82.07
2022-12-16T16:37:44.642Z,79.20
2022-12-16T16:40:47.685Z,76.05
2022-12-16T16:43:33.394Z,77.80
2022-12-16T16:46:23.994Z,79.47
2022-12-16T16:49:11.018Z,79.60
2022-12-16T16:51:56.624Z,71.88
2022-12-16T16:54:41.921Z,75.78
2022-12-16T16:57:28.728Z,73.43
2022-12-16T17:00:14.169Z,77.22
2022-12-16T17:03:01.779Z,79.43
2022-12-16T17:05:47.474Z,78.55
2022-12-16T17:08:33.008Z,82.07
2022-12-16T17:11:18.429Z,82.82
2022-12-16T17:14:04.129Z,82.70
2022-12-16T17:16:49.572Z,75.35
2022-12-16T17:19:37.025Z,82.13
2022-12-16T17:22:33.782Z,75.68
2022-12-16T17:25:19.552Z,65.80
2022-12-16T17:28:05.342Z,85.18
2022-12-16T17:30:51.384Z,84.93
2022-12-16T17:33:37.254Z,84.22
2022-12-16T17:36:31.731Z,76.70
2022-12-16T17:39:17.603Z,75.45
2022-12-16T17:42:03.822Z,87.18
2022-12-16T17:44:49.771Z,85.68
2022-12-16T17:47:35.275Z,88.50
2022-12-16T17:50:21.315Z,87.38
2022-12-16T17:53:12.476Z,97.90
2022-12-16T17:55:57.908Z,94.68
2022-12-16T17:58:50.777Z,98.90
2022-12-16T18:01:36.794Z,100.65
2022-12-16T18:04:23.126Z,101.88
2022-12-16T18:07:08.536Z,95.65
2022-12-16T18:10:10.428Z,108.03
2022-12-16T18:12:56.542Z,94.50
2022-12-16T18:15:42.108Z,104.88
2022-12-16T18:18:27.788Z,100.32
2022-12-16T18:21:13.277Z,101.35
2022-12-16T18:23:58.486Z,101.63
2022-12-16T18:26:45.655Z,98.00
2022-12-16T18:29:30.813Z,113.50
2022-12-16T18:32:15.943Z,100.35
2022-12-16T18:35:01.431Z,111.93
2022-12-16T18:37:47.221Z,98.80
2022-12-16T18:40:32.529Z,102.13
2022-12-16T18:43:19.641Z,100.45
2022-12-16T18:46:10.424Z,87.78
2022-12-16T18:48:56.059Z,105.65
2022-12-16T18:51:41.659Z,100.40
2022-12-16T18:54:27.476Z,99.82
2022-12-16T18:57:12.785Z,84.45
2022-12-16T18:59:59.955Z,101.18
2022-12-16T19:02:45.419Z,83.15
2022-12-16T19:05:31.773Z,106.13
2022-12-16T19:08:17.006Z,101.47
2022-12-16T19:11:02.895Z,106.47
2022-12-16T19:13:48.238Z,91.60
2022-12-16T19:16:35.439Z,108.72
2022-12-16T19:19:21.115Z,117.88
2022-12-16T19:22:06.470Z,110.22
2022-12-16T19:24:52.089Z,108.70
2022-12-16T19:27:37.726Z,112.68
2022-12-16T19:30:24.032Z,111.18
2022-12-16T19:33:11.369Z,115.40
2022-12-16T19:35:56.910Z,108.03
2022-12-16T19:38:42.861Z,111.45
2022-12-16T19:41:44.264Z,111.43
2022-12-16T19:44:30.059Z,110.00
2022-12-16T19:47:15.743Z,107.55
2022-12-16T19:50:02.968Z,110.10
2022-12-16T19:52:48.236Z,108.55
2022-12-16T19:55:34.304Z,96.60
2022-12-16T19:58:19.604Z,104.00
2022-12-16T20:01:05.398Z,111.15
2022-12-16T20:03:52.092Z,112.50
2022-12-16T20:06:39.367Z,110.90
2022-12-16T20:09:39.358Z,104.18
2022-12-16T20:12:25.035Z,106.82
2022-12-16T20:15:06.808Z,108.07
2022-12-16T20:17:56.067Z,103.38
2022-12-16T20:20:41.997Z,111.50
2022-12-16T20:23:29.042Z,108.47
2022-12-16T20:26:15.854Z,110.57
2022-12-16T20:29:01.649Z,102.45
2022-12-16T20:31:48.038Z,107.93
2022-12-16T20:34:33.432Z,106.65
2022-12-16T20:37:19.409Z,109.63
2022-12-16T20:40:06.678Z,114.18
2022-12-16T20:42:53.297Z,108.07
2022-12-16T20:45:39.295Z,105.18
2022-12-16T20:48:25.236Z,111.10
2022-12-16T20:51:14.571Z,114.28
2022-12-16T20:54:00.371Z,107.47
2022-12-16T20:56:47.561Z,109.18
2022-12-16T20:59:33.268Z,112.53
2022-12-16T21:02:23.456Z,112.35
2022-12-16T21:05:10.508Z,113.57
2022-12-16T21:07:56.854Z,115.72
2022-12-16T21:10:42.306Z,112.70
2022-12-16T21:13:31.864Z,114.43
2022-12-16T21:16:18.664Z,114.65
2022-12-16T21:19:04.431Z,113.00
2022-12-16T21:21:50.133Z,116.63
2022-12-16T21:24:35.719Z,115.65
2022-12-16T21:27:21.651Z,114.03
2022-12-16T21:30:08.894Z,114.22
2022-12-16T21:32:55.253Z,120.88
2022-12-16T21:35:42.452Z,117.20
2022-12-16T21:38:28.788Z,113.07
2022-12-16T21:41:14.639Z,118.88
2022-12-16T21:44:00.167Z,118.78
2022-12-16T21:46:47.111Z,120.20
2022-12-16T21:49:32.869Z,121.30
2022-12-16T21:52:18.790Z,123.45
2022-12-16T21:55:04.196Z,116.32
2022-12-16T21:57:49.959Z,115.20
2022-12-16T22:00:35.735Z,136.98
2022-12-16T22:03:23.054Z,116.63
2022-12-16T22:06:08.337Z,109.07
2022-12-16T22:12:00.860Z,106.57
2022-12-16T22:14:46.666Z,110.47
2022-12-16T22:17:32.093Z,111.18
2022-12-16T22:20:19.277Z,115.18
2022-12-16T22:23:04.981Z,110.55
2022-12-16T22:25:50.812Z,106.97
2022-12-16T22:28:38.732Z,103.90
2022-12-16T22:31:24.524Z,99.65
2022-12-16T22:34:10.888Z,99.10
2022-12-16T22:36:57.827Z,94.53
2022-12-16T22:39:45.172Z,91.38
2022-12-16T22:42:31.088Z,82.75
2022-12-16T22:45:16.444Z,81.05
2022-12-16T22:48:01.967Z,77.78
2022-12-16T22:50:47.693Z,72.80
2022-12-16T22:53:34.780Z,77.70
2022-12-16T22:56:20.664Z,76.63
2022-12-16T22:59:07.960Z,75.63
2022-12-16T23:01:53.305Z,71.65
2022-12-16T23:04:39.684Z,69.78
2022-12-16T23:07:26.327Z,68.85
2022-12-16T23:10:16.004Z,74.45
2022-12-16T23:13:01.957Z,69.22
2022-12-16T23:15:47.617Z,70.32
2022-12-16T23:18:33.308Z,72.50
2022-12-16T23:21:18.924Z,70.85
2022-12-16T23:24:04.835Z,72.80
2022-12-16T23:26:51.678Z,70.97
2022-12-16T23:29:37.818Z,66.07
2022-12-16T23:32:23.408Z,66.03
2022-12-16T23:35:08.990Z,71.45
2022-12-16T23:37:54.270Z,69.88
2022-12-16T23:40:41.771Z,72.82
2022-12-16T23:43:28.922Z,69.35
2022-12-16T23:46:14.634Z,72.18
2022-12-16T23:49:00.388Z,70.15
2022-12-16T23:51:45.839Z,77.40
2022-12-16T23:54:31.652Z,76.70
2022-12-16T23:57:17.055Z,74.85
